Time;durP1;ratioP1;P1;durP2;ratioP2;P2;SDS_P1;SDS_P2;PMS_P1;PMS_P2;Temp;Humidity;BMP_temperature;BMP_pressure;BME280_temperature;BME280_humidity;BME280_pressure;Samples;Min_cycle;Max_cycle;Signal;HPM_P1;HPM_P2
2022/08/10 00:02:29;;;;;;;5.10;4.73;;;21.90;81.90;;;;;;5020702;28;20240;-68
2022/08/10 00:04:55;;;;;;;5.20;4.90;;;21.90;81.60;;;;;;5030125;28;20862;-68
2022/08/10 00:07:21;;;;;;;4.80;4.50;;;21.90;81.90;;;;;;5031101;28;20208;-68
2022/08/10 00:09:46;;;;;;;6.23;5.73;;;21.80;82.00;;;;;;5028416;28;20277;-68
2022/08/10 00:12:12;;;;;;;5.97;5.67;;;21.80;81.60;;;;;;5029120;28;20547;-69
2022/08/10 00:14:38;;;;;;;6.43;5.93;;;21.80;82.60;;;;;;5020821;28;20174;-68
2022/08/10 00:17:04;;;;;;;6.07;5.60;;;21.80;83.10;;;;;;5031208;28;20245;-68
2022/08/10 00:19:29;;;;;;;7.13;6.10;;;21.70;82.70;;;;;;5028922;28;20226;-68
2022/08/10 00:21:55;;;;;;;5.87;5.20;;;21.70;83.10;;;;;;5029929;28;20185;-68
2022/08/10 00:24:21;;;;;;;5.23;4.93;;;21.70;83.90;;;;;;5028271;28;20190;-68
2022/08/10 00:26:49;;;;;;;6.03;5.53;;;21.60;84.30;;;;;;5028608;28;20182;-69
2022/08/10 00:29:15;;;;;;;6.30;5.90;;;21.60;83.90;;;;;;5029005;28;21050;-68
2022/08/10 00:31:41;;;;;;;5.67;5.30;;;21.60;84.30;;;;;;5027682;28;20181;-68
2022/08/10 00:34:06;;;;;;;6.30;5.90;;;21.50;84.50;;;;;;5028063;28;20519;-68
2022/08/10 00:36:32;;;;;;;5.73;5.43;;;21.50;85.80;;;;;;5029161;28;20626;-68
2022/08/10 00:38:58;;;;;;;6.13;5.73;;;21.50;85.20;;;;;;5031545;28;20296;-68
2022/08/10 00:41:24;;;;;;;7.40;5.20;;;21.40;84.80;;;;;;5030230;28;20189;-68
2022/08/10 00:43:49;;;;;;;5.80;5.40;;;21.40;85.20;;;;;;5028929;28;20182;-68
2022/08/10 00:46:15;;;;;;;5.70;5.20;;;21.30;85.80;;;;;;5031962;28;20990;-68
2022/08/10 00:48:41;;;;;;;7.47;6.97;;;21.30;86.20;;;;;;5029201;28;20280;-68
2022/08/10 00:51:07;;;;;;;6.70;6.20;;;21.30;86.60;;;;;;5029955;28;20218;-68
2022/08/10 00:53:32;;;;;;;5.83;5.43;;;21.20;87.60;;;;;;5013210;28;20275;-69
2022/08/10 00:55:58;;;;;;;5.93;5.40;;;21.20;87.40;;;;;;5019897;28;20187;-68
2022/08/10 00:58:24;;;;;;;6.27;5.87;;;21.20;87.60;;;;;;5029068;28;20218;-68
2022/08/10 01:00:50;;;;;;;9.80;6.50;;;21.10;87.70;;;;;;5027987;28;20437;-68
2022/08/10 01:03:16;;;;;;;6.53;6.03;;;21.10;87.70;;;;;;5030685;28;20909;-68
2022/08/10 01:06:04;;;;;;;5.43;5.13;;;21.10;87.60;;;;;;5029311;28;20189;-68
2022/08/10 01:08:53;;;;;;;6.30;5.90;;;21.10;88.50;;;;;;5031092;28;20171;-70
2022/08/10 01:11:34;;;;;;;7.50;6.20;;;21.10;89.50;;;;;;5027981;28;20519;-68
2022/08/10 01:14:25;;;;;;;6.20;5.70;;;21.10;89.60;;;;;;5031017;28;20773;-68
2022/08/10 01:17:05;;;;;;;6.47;6.03;;;21.00;90.00;;;;;;5020979;28;20845;-68
2022/08/10 01:20:09;;;;;;;6.60;6.00;;;21.00;90.10;;;;;;5023420;28;20476;-70
2022/08/10 01:23:03;;;;;;;6.30;5.90;;;21.00;90.10;;;;;;5019553;28;20993;-68
2022/08/10 01:25:58;;;;;;;7.63;7.07;;;20.90;90.50;;;;;;5051271;28;20427;-70
2022/08/10 01:29:02;;;;;;;6.40;6.00;;;20.90;90.60;;;;;;5030499;28;20487;-68
2022/08/10 01:31:33;;;;;;;6.53;5.93;;;20.80;90.80;;;;;;5032039;28;20833;-70
2022/08/10 01:34:08;;;;;;;6.67;6.17;;;20.80;91.20;;;;;;5035348;28;20397;-68
2022/08/10 01:36:43;;;;;;;7.60;6.17;;;20.80;91.10;;;;;;5053806;28;20443;-68
2022/08/10 01:39:13;;;;;;;6.57;6.10;;;20.80;91.30;;;;;;5035268;28;20974;-68
2022/08/10 01:41:43;;;;;;;6.40;6.00;;;20.80;91.20;;;;;;5033175;28;20447;-68
2022/08/10 01:44:17;;;;;;;5.83;5.43;;;20.70;91.30;;;;;;5032764;28;20455;-69
2022/08/10 01:46:47;;;;;;;6.17;5.77;;;20.70;91.40;;;;;;5033299;28;20524;-69
2022/08/10 01:49:16;;;;;;;6.47;5.97;;;20.70;91.60;;;;;;5023432;28;20443;-68
2022/08/10 01:51:47;;;;;;;5.37;5.00;;;20.70;91.60;;;;;;5033196;28;21030;-68
2022/08/10 01:54:19;;;;;;;5.90;5.60;;;20.60;91.70;;;;;;5034123;28;20467;-68
2022/08/10 01:56:49;;;;;;;6.13;5.50;;;20.60;91.80;;;;;;5032612;28;20457;-68
2022/08/10 01:59:22;;;;;;;6.80;6.30;;;20.60;91.80;;;;;;5031292;28;20480;-68
2022/08/10 02:01:52;;;;;;;6.70;6.07;;;20.50;91.90;;;;;;5022934;28;20429;-68
2022/08/10 02:04:20;;;;;;;7.63;7.03;;;20.40;91.90;;;;;;5033854;28;20437;-68
2022/08/10 02:06:49;;;;;;;7.17;6.60;;;20.40;92.30;;;;;;5031815;28;20440;-68
2022/08/10 02:09:30;;;;;;;7.40;6.90;;;20.40;92.70;;;;;;5032771;28;20441;-68
2022/08/10 02:12:01;;;;;;;7.40;6.90;;;20.40;93.10;;;;;;5032112;28;20436;-68
2022/08/10 02:14:34;;;;;;;7.53;7.03;;;20.40;93.00;;;;;;5032674;28;20433;-68
2022/08/10 02:17:06;;;;;;;8.17;7.57;;;20.40;93.00;;;;;;5032300;28;20435;-68
2022/08/10 02:19:35;;;;;;;7.10;6.70;;;20.30;92.80;;;;;;5029854;28;20481;-70
2022/08/10 02:22:03;;;;;;;7.20;6.77;;;20.20;92.90;;;;;;5033516;28;20917;-68
2022/08/10 02:24:29;;;;;;;7.00;6.60;;;20.10;93.00;;;;;;5033414;28;20473;-68
2022/08/10 02:26:56;;;;;;;7.40;6.90;;;20.10;93.30;;;;;;5031480;28;20494;-68
2022/08/10 02:29:23;;;;;;;6.70;6.30;;;20.00;93.50;;;;;;5031468;28;20555;-68
2022/08/10 02:31:49;;;;;;;6.73;6.23;;;20.10;93.80;;;;;;5028947;28;20440;-68
2022/08/10 02:34:16;;;;;;;7.13;6.63;;;20.00;93.80;;;;;;5026424;28;20433;-68
2022/08/10 02:36:46;;;;;;;7.30;6.70;;;20.00;94.00;;;;;;5031832;28;20444;-68
2022/08/10 02:39:16;;;;;;;6.60;6.10;;;20.00;93.90;;;;;;5031323;28;20472;-68
2022/08/10 02:41:47;;;;;;;6.00;5.50;;;19.90;94.00;;;;;;5031895;28;20433;-69
2022/08/10 02:44:34;;;;;;;6.83;6.33;;;19.80;94.30;;;;;;5026656;28;20445;-69
2022/08/10 02:47:11;;;;;;;7.20;6.60;;;19.80;94.70;;;;;;5030037;28;20965;-69
2022/08/10 02:49:50;;;;;;;7.57;6.87;;;19.80;94.90;;;;;;5029333;28;20446;-70
2022/08/10 02:52:24;;;;;;;6.67;6.17;;;19.80;95.00;;;;;;5033113;28;20829;-69
2022/08/10 02:55:00;;;;;;;6.87;6.43;;;19.90;95.00;;;;;;5033000;28;20550;-69
2022/08/10 02:57:32;;;;;;;6.90;6.50;;;19.90;95.00;;;;;;5033135;28;20489;-69
2022/08/10 03:00:03;;;;;;;6.83;6.33;;;19.90;95.10;;;;;;5027643;28;20972;-69
2022/08/10 03:02:34;;;;;;;6.77;6.37;;;19.90;94.90;;;;;;5032657;28;20433;-69
2022/08/10 03:05:04;;;;;;;7.00;6.50;;;19.80;94.90;;;;;;5025502;28;20440;-69
2022/08/10 03:07:36;;;;;;;6.80;6.40;;;19.80;95.00;;;;;;5023277;28;20434;-69
2022/08/10 03:10:03;;;;;;;7.20;6.70;;;19.80;95.10;;;;;;5028502;28;20433;-69
2022/08/10 03:12:31;;;;;;;8.00;7.50;;;19.80;95.30;;;;;;5031142;28;20440;-69
2022/08/10 03:14:58;;;;;;;7.83;7.33;;;19.80;95.30;;;;;;5031680;28;20504;-69
2022/08/10 03:17:24;;;;;;;8.13;7.53;;;19.70;95.40;;;;;;5032170;28;20441;-69
2022/08/10 03:19:52;;;;;;;8.33;7.63;;;19.80;95.40;;;;;;5028347;28;20946;-69
2022/08/10 03:22:18;;;;;;;7.10;6.60;;;19.70;95.40;;;;;;5030634;28;20479;-69
2022/08/10 03:24:45;;;;;;;7.93;7.33;;;19.70;95.50;;;;;;5031832;28;20451;-69
2022/08/10 03:27:16;;;;;;;8.00;7.40;;;19.70;95.60;;;;;;5032255;28;20937;-69
2022/08/10 03:29:42;;;;;;;8.60;7.60;;;19.70;95.70;;;;;;5031356;28;20486;-70
2022/08/10 03:32:10;;;;;;;9.27;8.33;;;19.70;95.70;;;;;;5030114;28;20932;-70
2022/08/10 03:34:36;;;;;;;7.97;7.33;;;19.60;95.40;;;;;;5029348;28;20433;-71
2022/08/10 03:37:02;;;;;;;8.40;7.70;;;19.60;95.60;;;;;;5044277;28;20992;-69
2022/08/10 03:39:27;;;;;;;9.67;8.73;;;19.60;95.70;;;;;;5031430;28;20514;-69
2022/08/10 03:41:57;;;;;;;8.07;7.57;;;19.50;95.70;;;;;;5031359;28;20186;-69
2022/08/10 03:44:26;;;;;;;9.43;7.87;;;19.60;95.80;;;;;;5031634;28;20175;-69
2022/08/10 03:46:53;;;;;;;8.10;7.60;;;19.60;95.70;;;;;;5029209;28;20440;-69
2022/08/10 03:49:20;;;;;;;7.40;6.80;;;19.50;95.60;;;;;;5029073;28;20448;-69
2022/08/10 03:51:48;;;;;;;8.30;7.60;;;19.40;95.70;;;;;;5031101;28;20468;-69
2022/08/10 03:54:18;;;;;;;11.13;10.07;;;19.30;95.90;;;;;;5031706;28;20436;-69
2022/08/10 03:56:44;;;;;;;8.03;7.27;;;19.30;95.90;;;;;;5031102;28;20429;-69
2022/08/10 03:59:13;;;;;;;9.00;8.20;;;19.00;96.30;;;;;;5030739;28;20476;-69
2022/08/10 04:01:41;;;;;;;8.37;7.67;;;18.90;97.00;;;;;;5029938;28;20567;-71
2022/08/10 04:04:07;;;;;;;8.90;8.10;;;19.00;97.20;;;;;;5029970;28;20429;-69
2022/08/10 04:06:33;;;;;;;11.87;10.87;;;19.00;97.10;;;;;;5029772;28;20920;-68
2022/08/10 04:08:58;;;;;;;7.90;7.27;;;19.00;97.10;;;;;;5030773;28;20432;-70
2022/08/10 04:11:24;;;;;;;8.40;7.90;;;19.10;97.00;;;;;;5031392;28;20763;-69
2022/08/10 04:13:50;;;;;;;10.30;7.53;;;19.10;96.80;;;;;;5030670;28;20315;-69
2022/08/10 04:16:15;;;;;;;7.57;7.07;;;19.10;96.60;;;;;;5031245;28;20280;-69
2022/08/10 04:18:41;;;;;;;9.03;8.30;;;19.00;96.60;;;;;;5029428;28;20684;-71
2022/08/10 04:21:23;;;;;;;8.03;7.53;;;18.80;97.20;;;;;;5031031;28;20192;-69
2022/08/10 04:23:51;;;;;;;10.13;9.13;;;18.70;97.70;;;;;;5011807;28;20170;-69
2022/08/10 04:26:17;;;;;;;8.20;7.70;;;18.50;98.20;;;;;;5014977;28;20425;-69
2022/08/10 04:28:43;;;;;;;9.30;8.60;;;18.60;98.40;;;;;;5022920;28;20784;-69
2022/08/10 04:31:13;;;;;;;8.80;8.10;;;18.60;98.40;;;;;;5028694;28;20468;-69
2022/08/10 04:33:42;;;;;;;10.83;10.00;;;18.70;98.40;;;;;;5027335;28;20477;-71
2022/08/10 04:36:10;;;;;;;7.27;6.70;;;18.70;98.30;;;;;;4986217;28;20425;-69
2022/08/10 04:38:36;;;;;;;8.00;7.33;;;18.80;98.30;;;;;;5031113;28;20468;-69
2022/08/10 04:41:02;;;;;;;9.10;8.30;;;18.80;98.10;;;;;;5030036;28;21126;-69
2022/08/10 04:43:29;;;;;;;9.47;8.87;;;18.90;98.10;;;;;;5028569;28;20519;-69
2022/08/10 04:45:54;;;;;;;7.30;6.70;;;18.90;97.90;;;;;;5024067;28;20434;-69
2022/08/10 04:48:23;;;;;;;7.83;7.23;;;19.00;97.80;;;;;;5024592;28;20845;-69
2022/08/10 04:50:49;;;;;;;8.60;7.90;;;19.00;97.80;;;;;;5026084;28;20324;-69
2022/08/10 04:53:15;;;;;;;10.23;9.37;;;19.00;97.60;;;;;;5031488;28;20432;-69
2022/08/10 04:55:41;;;;;;;8.20;7.60;;;19.00;97.60;;;;;;5031689;28;20897;-69
2022/08/10 04:58:09;;;;;;;9.67;8.80;;;19.00;97.70;;;;;;5016682;28;20194;-69
2022/08/10 05:00:35;;;;;;;7.50;6.90;;;19.10;97.70;;;;;;5031359;28;20660;-69
2022/08/10 05:03:01;;;;;;;8.90;8.20;;;19.20;97.60;;;;;;5051599;28;20420;-69
2022/08/10 05:05:29;;;;;;;9.60;8.80;;;19.20;97.70;;;;;;5038854;28;20794;-69
2022/08/10 05:07:55;;;;;;;8.60;7.90;;;19.20;97.60;;;;;;5035448;28;20420;-69
2022/08/10 05:10:21;;;;;;;14.50;13.00;;;19.30;97.50;;;;;;5034996;28;20571;-69
2022/08/10 05:12:46;;;;;;;9.67;8.70;;;19.30;97.40;;;;;;5035182;28;20178;-70
2022/08/10 05:15:16;;;;;;;10.53;9.67;;;19.30;97.30;;;;;;5036458;28;20174;-69
2022/08/10 05:17:43;;;;;;;11.60;10.70;;;19.40;97.40;;;;;;5024578;28;20174;-71
2022/08/10 05:20:11;;;;;;;11.53;10.47;;;19.40;97.20;;;;;;5026700;28;20536;-69
2022/08/10 05:22:44;;;;;;;12.30;11.20;;;19.40;97.20;;;;;;5019987;28;20798;-69
2022/08/10 05:25:16;;;;;;;12.40;11.23;;;19.40;96.90;;;;;;5031814;28;20515;-69
2022/08/10 05:27:43;;;;;;;11.20;10.07;;;19.50;96.90;;;;;;5030129;28;20439;-70
2022/08/10 05:30:12;;;;;;;10.73;9.73;;;19.40;97.00;;;;;;5021099;28;20461;-69
2022/08/10 05:32:38;;;;;;;12.40;11.30;;;19.40;97.20;;;;;;5020371;28;20433;-69
2022/08/10 05:35:04;;;;;;;12.17;10.97;;;19.40;97.00;;;;;;5014965;28;20484;-69
2022/08/10 05:37:31;;;;;;;11.57;10.47;;;19.50;97.10;;;;;;5024779;28;20845;-69
2022/08/10 05:39:57;;;;;;;10.00;9.00;;;19.50;97.30;;;;;;5028742;28;20468;-71
2022/08/10 05:42:24;;;;;;;9.93;9.13;;;19.60;97.70;;;;;;5030681;28;20491;-71
2022/08/10 05:44:52;;;;;;;10.90;8.70;;;19.90;99.00;;;;;;5029324;28;20456;-71
2022/08/10 05:47:18;;;;;;;9.43;8.57;;;20.20;98.30;;;;;;5023217;28;20466;-70
2022/08/10 05:49:47;;;;;;;11.73;10.93;;;20.40;95.40;;;;;;5028168;28;20841;-76
2022/08/10 05:52:17;;;;;;;10.87;9.83;;;20.30;94.80;;;;;;5033307;28;20832;-74
2022/08/10 05:54:43;;;;;;;10.97;10.00;;;20.30;96.10;;;;;;5032969;28;20429;-76
2022/08/10 05:57:10;;;;;;;9.50;8.50;;;20.50;96.20;;;;;;5023896;28;20429;-75
2022/08/10 05:59:40;;;;;;;11.70;10.80;;;20.60;95.70;;;;;;5029344;28;20511;-75
2022/08/10 06:02:07;;;;;;;11.83;10.80;;;20.90;95.30;;;;;;5020714;28;20442;-75
2022/08/10 06:04:39;;;;;;;10.93;10.10;;;21.00;95.30;;;;;;5035676;28;20827;-75
2022/08/10 06:07:06;;;;;;;9.60;8.90;;;21.20;94.70;;;;;;5044867;28;20561;-75
2022/08/10 06:09:35;;;;;;;11.00;10.10;;;21.30;94.10;;;;;;5046698;28;20429;-74
2022/08/10 06:12:01;;;;;;;9.27;8.57;;;21.40;93.70;;;;;;5034340;28;20441;-75
2022/08/10 06:17:13;;;;;;;9.60;8.90;;;21.60;93.50;;;;;;5018426;28;20440;-72
2022/08/10 06:19:40;;;;;;;9.33;8.53;;;21.50;92.60;;;;;;5025155;28;20830;-72
2022/08/10 06:22:06;;;;;;;9.10;8.40;;;21.10;92.20;;;;;;5021541;28;20474;-72
2022/08/10 06:24:36;;;;;;;9.53;8.73;;;20.90;92.90;;;;;;5029269;28;20468;-70
2022/08/10 06:27:02;;;;;;;9.20;8.50;;;20.70;93.30;;;;;;5031838;28;20445;-71
2022/08/10 06:29:30;;;;;;;9.73;9.13;;;20.60;93.50;;;;;;5034317;28;20509;-69
2022/08/10 06:31:58;;;;;;;9.83;8.83;;;20.50;93.70;;;;;;5033972;28;20417;-72
2022/08/10 06:34:28;;;;;;;9.10;8.40;;;20.50;94.20;;;;;;5032004;28;20474;-72
2022/08/10 06:36:57;;;;;;;8.43;7.87;;;20.50;94.30;;;;;;5032990;28;20442;-72
2022/08/10 06:39:23;;;;;;;8.47;7.77;;;20.50;94.40;;;;;;5027927;28;20481;-72
2022/08/10 06:41:52;;;;;;;9.77;7.97;;;20.50;94.10;;;;;;5029901;28;20428;-72
2022/08/10 06:44:25;;;;;;;8.67;7.97;;;20.50;94.50;;;;;;5031733;28;20178;-72
2022/08/10 06:46:53;;;;;;;8.37;7.67;;;20.50;94.30;;;;;;5033338;28;20827;-74
2022/08/10 06:49:21;;;;;;;10.30;9.10;;;20.50;94.40;;;;;;5031602;28;20599;-73
2022/08/10 06:51:53;;;;;;;9.47;8.67;;;20.50;94.30;;;;;;5031085;28;20476;-76
2022/08/10 06:54:23;;;;;;;8.50;7.33;;;20.40;94.50;;;;;;5031731;28;20437;-72
2022/08/10 06:56:53;;;;;;;8.90;8.30;;;20.50;94.80;;;;;;5030893;28;20425;-72
2022/08/10 06:59:25;;;;;;;9.77;8.97;;;20.50;94.70;;;;;;5033981;28;20456;-73
2022/08/10 07:02:03;;;;;;;8.80;7.60;;;20.60;94.80;;;;;;5028212;28;20835;-73
2022/08/10 07:04:39;;;;;;;8.40;7.70;;;20.70;94.90;;;;;;5018586;28;20437;-73
2022/08/10 07:07:06;;;;;;;7.77;7.10;;;20.80;94.80;;;;;;5033011;28;20417;-73
2022/08/10 07:09:36;;;;;;;7.60;7.10;;;20.90;94.70;;;;;;5044828;28;20416;-73
2022/08/10 07:12:07;;;;;;;15.43;14.07;;;20.90;94.20;;;;;;5053215;28;20400;-73
2022/08/10 07:14:37;;;;;;;16.20;14.60;;;21.00;94.40;;;;;;5050065;28;20401;-73
2022/08/10 07:17:04;;;;;;;8.03;7.00;;;21.10;94.00;;;;;;5033304;28;20413;-73
2022/08/10 07:19:31;;;;;;;7.10;6.67;;;21.20;93.40;;;;;;5021322;28;20481;-73
2022/08/10 07:21:59;;;;;;;6.43;5.93;;;21.30;93.50;;;;;;5019948;28;20880;-73
2022/08/10 07:24:26;;;;;;;8.63;8.03;;;21.40;93.50;;;;;;5026994;28;20436;-73
2022/08/10 07:26:54;;;;;;;8.50;8.00;;;21.50;93.40;;;;;;5032156;28;20787;-73
2022/08/10 07:29:26;;;;;;;6.83;6.27;;;21.60;92.90;;;;;;5025780;28;20502;-72
2022/08/10 07:31:55;;;;;;;8.20;7.60;;;21.70;92.30;;;;;;5032860;28;20405;-73
2022/08/10 07:34:23;;;;;;;6.20;5.60;;;21.80;92.50;;;;;;5031197;28;20408;-73
2022/08/10 07:36:51;;;;;;;8.57;8.07;;;21.90;92.50;;;;;;5028072;28;20421;-72
2022/08/10 07:39:19;;;;;;;6.87;6.17;;;22.00;92.30;;;;;;5033155;28;20465;-73
2022/08/10 07:41:48;;;;;;;7.57;6.97;;;22.10;92.10;;;;;;5033389;28;20429;-73
2022/08/10 07:44:14;;;;;;;6.90;6.40;;;22.20;91.80;;;;;;5032737;28;20420;-73
2022/08/10 07:46:46;;;;;;;7.07;6.67;;;22.20;90.90;;;;;;5032254;28;20770;-73
2022/08/10 07:49:25;;;;;;;6.30;5.90;;;22.20;91.20;;;;;;5032603;28;20480;-73
2022/08/10 07:51:55;;;;;;;6.30;5.90;;;22.40;91.90;;;;;;5031263;28;20460;-74
2022/08/10 07:54:22;;;;;;;5.97;5.57;;;22.50;91.70;;;;;;5033058;28;20425;-73
2022/08/10 07:56:52;;;;;;;7.20;6.60;;;22.70;91.40;;;;;;5031788;28;20460;-73
2022/08/10 07:59:26;;;;;;;7.27;6.67;;;22.70;91.10;;;;;;5032650;28;20457;-73
2022/08/10 08:01:57;;;;;;;6.93;6.53;;;22.80;90.30;;;;;;5032479;28;20782;-73
2022/08/10 08:04:24;;;;;;;7.40;6.70;;;23.00;90.80;;;;;;5031702;28;20409;-73
2022/08/10 08:06:51;;;;;;;6.60;6.10;;;23.10;90.10;;;;;;5031401;28;20429;-73
2022/08/10 08:09:19;;;;;;;6.57;5.83;;;23.20;90.40;;;;;;5032936;28;20412;-73
2022/08/10 08:11:46;;;;;;;8.43;7.93;;;23.40;89.20;;;;;;5032807;28;20743;-72
2022/08/10 08:14:14;;;;;;;9.30;5.83;;;23.50;90.10;;;;;;5032295;28;20409;-73
2022/08/10 08:16:44;;;;;;;6.13;5.73;;;23.70;90.00;;;;;;5031691;28;20439;-72
2022/08/10 08:19:10;;;;;;;7.70;7.00;;;23.80;86.20;;;;;;5032161;28;20457;-72
2022/08/10 08:21:37;;;;;;;6.57;6.07;;;24.00;85.80;;;;;;5032899;28;20792;-72
2022/08/10 08:24:05;;;;;;;7.23;6.73;;;24.10;86.90;;;;;;5025557;28;20437;-72
2022/08/10 08:26:32;;;;;;;6.00;5.70;;;24.30;86.40;;;;;;5028758;28;20525;-72
2022/08/10 08:28:59;;;;;;;7.10;6.60;;;24.40;87.00;;;;;;5031284;28;20420;-72
2022/08/10 08:31:26;;;;;;;6.37;5.97;;;24.60;85.20;;;;;;5032016;28;20500;-72
2022/08/10 08:33:54;;;;;;;6.87;6.40;;;24.70;83.30;;;;;;5031786;28;20896;-72
2022/08/10 08:36:20;;;;;;;7.63;7.13;;;24.90;81.60;;;;;;5030185;28;20546;-72
2022/08/10 08:38:47;;;;;;;6.87;6.37;;;24.90;79.40;;;;;;5032421;28;20461;-72
2022/08/10 08:41:28;;;;;;;9.00;8.20;;;25.00;77.20;;;;;;4998999;28;20686;-72
2022/08/10 08:43:57;;;;;;;9.57;8.87;;;25.10;77.00;;;;;;5036034;28;20402;-73
2022/08/10 08:46:33;;;;;;;6.90;6.33;;;25.20;79.50;;;;;;5035143;28;20510;-72
2022/08/10 08:49:17;;;;;;;8.00;7.50;;;25.30;77.50;;;;;;5036019;28;20413;-72
2022/08/10 08:52:11;;;;;;;6.27;5.77;;;25.30;78.70;;;;;;5036653;28;20456;-72
2022/08/10 08:54:58;;;;;;;6.70;6.20;;;25.50;79.00;;;;;;5036716;28;20443;-72
2022/08/10 08:58:08;;;;;;;6.50;6.10;;;25.70;77.70;;;;;;5029278;28;20429;-72
2022/08/10 09:00:46;;;;;;;7.50;7.00;;;25.90;76.40;;;;;;5030392;28;20472;-72
2022/08/10 09:03:42;;;;;;;9.33;8.10;;;26.10;76.50;;;;;;5034165;28;20432;-72
2022/08/10 09:06:29;;;;;;;7.10;6.70;;;26.20;74.80;;;;;;5035393;28;20412;-72
2022/08/10 09:09:21;;;;;;;9.37;8.77;;;26.50;72.90;;;;;;5035563;28;20405;-73
2022/08/10 09:12:18;;;;;;;16.00;8.53;;;26.60;72.40;;;;;;5024112;28;20490;-72
2022/08/10 09:15:02;;;;;;;6.73;6.23;;;26.80;71.20;;;;;;5034295;28;20452;-72
2022/08/10 09:17:59;;;;;;;7.97;6.87;;;27.00;71.40;;;;;;5035777;28;20838;-72
2022/08/10 09:20:42;;;;;;;7.70;7.10;;;27.20;69.10;;;;;;5036090;28;20480;-72
2022/08/10 09:23:19;;;;;;;6.00;5.50;;;27.30;69.10;;;;;;5033837;28;20586;-72
2022/08/10 09:26:03;;;;;;;7.73;7.13;;;27.40;66.80;;;;;;5035916;28;20487;-72
2022/08/10 09:28:36;;;;;;;7.27;6.27;;;27.50;65.80;;;;;;5036197;28;20400;-72
2022/08/10 09:31:05;;;;;;;6.80;6.03;;;27.60;63.60;;;;;;5034942;28;20871;-72
2022/08/10 09:33:39;;;;;;;7.70;7.20;;;27.70;63.50;;;;;;5035277;28;20440;-72
2022/08/10 09:36:18;;;;;;;8.20;7.40;;;27.80;63.30;;;;;;5035054;28;20438;-72
2022/08/10 09:39:08;;;;;;;6.37;5.97;;;28.00;61.30;;;;;;5035607;28;20561;-72
2022/08/10 09:41:50;;;;;;;7.17;6.77;;;28.00;61.20;;;;;;5034466;28;20468;-72
2022/08/10 09:44:44;;;;;;;9.10;8.40;;;28.20;60.60;;;;;;5034937;28;20428;-72
2022/08/10 09:47:47;;;;;;;6.67;6.27;;;28.40;59.50;;;;;;5034987;28;20405;-72
2022/08/10 09:50:22;;;;;;;7.90;7.30;;;28.50;59.00;;;;;;5034690;28;21003;-72
2022/08/10 09:52:59;;;;;;;7.43;6.83;;;28.70;61.00;;;;;;5032828;28;20448;-69
2022/08/10 09:55:39;;;;;;;9.93;9.00;;;28.90;59.70;;;;;;5035379;28;20742;-70
2022/08/10 09:58:27;;;;;;;7.83;7.33;;;29.00;59.70;;;;;;5034742;28;20405;-70
2022/08/10 10:01:19;;;;;;;9.23;7.53;;;29.10;58.10;;;;;;5033709;28;20433;-70
2022/08/10 10:03:54;;;;;;;9.43;8.93;;;29.20;58.00;;;;;;5032923;28;20503;-69
2022/08/10 10:06:43;;;;;;;7.37;6.87;;;29.30;57.20;;;;;;5034519;28;20448;-70
2022/08/10 10:09:20;;;;;;;6.80;6.23;;;29.40;57.60;;;;;;5034454;28;20538;-70
2022/08/10 10:12:00;;;;;;;7.57;6.97;;;29.40;58.50;;;;;;5034022;28;20497;-69
2022/08/10 10:15:19;;;;;;;7.83;7.33;;;29.60;58.80;;;;;;5035030;28;20407;-70
2022/08/10 10:17:46;;;;;;;7.00;6.60;;;29.80;59.40;;;;;;5034840;28;20508;-70
2022/08/10 10:20:43;;;;;;;8.10;7.60;;;29.90;57.90;;;;;;4999159;28;20889;-70
2022/08/10 10:23:15;;;;;;;8.07;7.70;;;30.10;56.60;;;;;;5032935;28;20520;-70
2022/08/10 10:26:04;;;;;;;8.73;8.23;;;30.20;56.90;;;;;;5034814;28;20413;-70
2022/08/10 10:28:45;;;;;;;7.57;7.17;;;30.20;55.60;;;;;;5033385;28;20448;-69
2022/08/10 10:31:28;;;;;;;5.93;5.47;;;30.20;55.60;;;;;;5034162;28;20397;-69
2022/08/10 10:34:31;;;;;;;8.17;7.60;;;30.20;55.80;;;;;;5034204;28;20451;-70
2022/08/10 10:36:59;;;;;;;8.00;7.50;;;30.30;55.20;;;;;;5022863;28;20840;-70
2022/08/10 10:39:27;;;;;;;8.73;8.33;;;30.30;56.30;;;;;;5033964;28;20467;-69
2022/08/10 10:42:01;;;;;;;6.20;5.70;;;30.40;56.40;;;;;;5033282;28;20433;-70
2022/08/10 10:44:45;;;;;;;6.73;6.23;;;30.40;54.50;;;;;;5034489;28;20412;-70
2022/08/10 10:47:29;;;;;;;7.23;6.83;;;30.50;54.10;;;;;;5033233;28;20507;-70
2022/08/10 10:50:26;;;;;;;7.87;7.13;;;30.60;54.30;;;;;;5033734;28;20904;-70
2022/08/10 10:53:22;;;;;;;7.33;6.93;;;30.70;54.00;;;;;;5032416;28;20492;-69
2022/08/10 10:55:55;;;;;;;6.60;6.10;;;30.70;54.20;;;;;;5034257;28;20401;-70
2022/08/10 10:58:47;;;;;;;8.07;7.50;;;30.80;53.70;;;;;;5033945;28;21254;-70
2022/08/10 11:01:32;;;;;;;7.47;7.00;;;30.90;53.80;;;;;;5028720;28;20449;-70
2022/08/10 11:04:20;;;;;;;7.40;6.90;;;30.90;54.40;;;;;;5032793;28;20432;-69
2022/08/10 11:06:49;;;;;;;6.33;5.93;;;31.00;54.00;;;;;;5033796;28;20493;-69
2022/08/10 11:09:26;;;;;;;6.07;5.67;;;31.00;52.70;;;;;;5033355;28;20529;-70
2022/08/10 11:11:58;;;;;;;12.90;11.63;;;31.10;53.40;;;;;;5032466;28;20397;-69
2022/08/10 11:14:40;;;;;;;10.50;9.53;;;31.20;53.60;;;;;;5033292;28;20397;-70
2022/08/10 11:17:17;;;;;;;6.63;6.23;;;31.20;52.70;;;;;;5033229;28;20397;-70
2022/08/10 11:20:11;;;;;;;6.53;6.13;;;31.40;53.00;;;;;;5033665;28;20911;-70
2022/08/10 11:23:30;;;;;;;6.47;6.07;;;31.40;50.90;;;;;;5032501;28;20534;-70
2022/08/10 11:26:36;;;;;;;6.70;6.40;;;31.50;51.40;;;;;;5011649;28;20453;-71
2022/08/10 11:29:12;;;;;;;7.27;6.77;;;31.50;51.30;;;;;;5031208;28;21035;-72
2022/08/10 11:31:54;;;;;;;7.23;6.57;;;31.50;51.00;;;;;;5030417;28;20401;-73
2022/08/10 11:34:47;;;;;;;7.00;6.60;;;31.60;53.20;;;;;;5030412;28;20421;-72
2022/08/10 11:37:47;;;;;;;7.17;6.67;;;31.70;51.20;;;;;;5030535;28;20417;-70
2022/08/10 11:40:51;;;;;;;8.47;7.77;;;31.70;51.50;;;;;;5030556;28;20501;-72
2022/08/10 11:43:21;;;;;;;6.70;6.20;;;31.80;52.00;;;;;;4970609;28;20807;-72
2022/08/10 11:46:17;;;;;;;8.73;8.03;;;31.80;50.30;;;;;;5025729;28;20495;-73
2022/08/10 11:48:50;;;;;;;9.63;9.03;;;31.80;52.00;;;;;;5030867;28;20964;-72
2022/08/10 11:51:27;;;;;;;8.30;7.80;;;31.90;51.70;;;;;;5029969;28;20515;-70
2022/08/10 11:54:09;;;;;;;6.80;6.20;;;31.90;51.00;;;;;;5030870;28;20444;-70
2022/08/10 11:56:48;;;;;;;6.10;5.63;;;32.00;50.40;;;;;;5030986;28;20932;-70
2022/08/10 12:02:06;;;;;;;7.90;5.83;;;31.90;49.30;;;;;;5032606;28;20427;-76
2022/08/10 12:04:34;;;;;;;7.57;6.77;;;31.90;50.60;;;;;;5030607;28;20441;-70
2022/08/10 12:07:03;;;;;;;7.90;7.40;;;31.90;49.60;;;;;;5033291;28;20470;-70
2022/08/10 12:09:30;;;;;;;7.73;7.33;;;32.00;50.90;;;;;;5031997;28;20917;-70
2022/08/10 12:12:00;;;;;;;6.83;6.07;;;32.00;50.10;;;;;;5032909;28;20409;-70
2022/08/10 12:15:08;;;;;;;7.50;7.10;;;32.00;49.00;;;;;;5030746;28;20436;-70
2022/08/10 12:17:43;;;;;;;7.80;7.27;;;32.00;49.30;;;;;;5028150;28;20439;-70
2022/08/10 12:20:40;;;;;;;6.30;6.00;;;32.20;50.00;;;;;;5031856;28;20507;-70
2022/08/10 12:23:33;;;;;;;6.20;5.90;;;32.10;48.00;;;;;;5026892;28;20441;-74
2022/08/10 12:26:12;;;;;;;6.23;5.83;;;32.10;48.60;;;;;;5032710;28;20405;-70
2022/08/10 12:28:48;;;;;;;6.57;5.97;;;32.20;48.80;;;;;;5033077;28;20397;-70
2022/08/10 12:31:16;;;;;;;7.80;7.30;;;32.10;48.20;;;;;;5032007;28;20452;-70
2022/08/10 12:34:15;;;;;;;7.53;7.13;;;32.10;48.90;;;;;;5031331;28;20782;-70
2022/08/10 12:36:46;;;;;;;6.97;6.57;;;32.00;49.00;;;;;;5027950;28;20424;-70
2022/08/10 12:39:24;;;;;;;10.07;9.47;;;32.00;48.20;;;;;;5032196;28;20499;-69
2022/08/10 12:42:05;;;;;;;9.20;8.60;;;32.20;50.20;;;;;;5032378;28;20893;-70
2022/08/10 12:44:45;;;;;;;7.03;6.63;;;32.20;49.30;;;;;;5030612;28;20468;-70
2022/08/10 12:47:17;;;;;;;6.07;5.77;;;32.20;48.20;;;;;;5029748;28;20436;-70
2022/08/10 12:50:01;;;;;;;6.60;6.30;;;32.10;47.90;;;;;;5032469;28;20417;-70
2022/08/10 12:52:33;;;;;;;6.70;6.20;;;32.10;47.70;;;;;;5031429;28;20465;-70
2022/08/10 12:55:05;;;;;;;7.03;6.67;;;32.10;48.70;;;;;;5031191;28;20462;-70
2022/08/10 12:57:35;;;;;;;6.67;6.23;;;32.00;48.90;;;;;;5031724;28;20393;-69
2022/08/10 13:00:07;;;;;;;6.90;6.40;;;32.00;47.20;;;;;;5028729;28;21015;-70
2022/08/10 13:02:37;;;;;;;6.67;6.27;;;31.90;49.00;;;;;;5032087;28;20503;-70
2022/08/10 13:05:07;;;;;;;7.20;6.77;;;31.80;48.50;;;;;;5032316;28;20420;-70
2022/08/10 13:09:07;;;;;;;7.30;6.63;;;31.80;48.10;;;;;;5031763;28;20408;-70
2022/08/10 13:10:47;;;;;;;7.73;7.20;;;31.80;47.90;;;;;;5032044;28;20504;-70
2022/08/10 13:13:16;;;;;;;6.40;6.00;;;31.80;49.50;;;;;;5031716;28;20405;-70
2022/08/10 13:15:46;;;;;;;8.33;7.80;;;31.80;49.70;;;;;;5030773;28;20429;-69
2022/08/10 13:18:17;;;;;;;6.40;6.10;;;31.80;47.60;;;;;;5031921;28;20398;-70
2022/08/10 13:20:44;;;;;;;6.23;5.57;;;31.70;47.70;;;;;;5031870;28;20987;-69
2022/08/10 13:23:27;;;;;;;6.17;5.77;;;31.60;48.30;;;;;;5031273;28;20894;-70
2022/08/10 13:25:56;;;;;;;6.73;6.33;;;31.60;48.40;;;;;;5032318;28;20409;-69